sensor_id;sensor_type;location;lat;lon;timestamp;P1;durP1;ratioP1;P2;durP2;ratioP2
11141;SDS011;5625;50.122;19.864;2023-08-06T00:01:17;19.57;;;15.43;;
11141;SDS011;5625;50.122;19.864;2023-08-06T00:03:47;18.87;;;16.37;;
11141;SDS011;5625;50.122;19.864;2023-08-06T00:06:16;15.80;;;14.10;;
11141;SDS011;5625;50.122;19.864;2023-08-06T00:08:44;18.77;;;15.27;;
11141;SDS011;5625;50.122;19.864;2023-08-06T00:11:13;18.20;;;15.17;;
11141;SDS011;5625;50.122;19.864;2023-08-06T00:13:41;17.50;;;15.13;;
11141;SDS011;5625;50.122;19.864;2023-08-06T00:16:10;19.83;;;15.53;;
11141;SDS011;5625;50.122;19.864;2023-08-06T00:18:38;21.70;;;16.27;;
11141;SDS011;5625;50.122;19.864;2023-08-06T00:21:07;23.23;;;16.17;;
11141;SDS011;5625;50.122;19.864;2023-08-06T00:23:35;18.97;;;15.10;;
11141;SDS011;5625;50.122;19.864;2023-08-06T00:26:03;22.80;;;15.53;;
11141;SDS011;5625;50.122;19.864;2023-08-06T00:28:32;21.27;;;15.80;;
11141;SDS011;5625;50.122;19.864;2023-08-06T00:31:00;20.33;;;15.90;;
11141;SDS011;5625;50.122;19.864;2023-08-06T00:33:28;22.67;;;16.40;;
11141;SDS011;5625;50.122;19.864;2023-08-06T00:35:56;21.80;;;16.60;;
11141;SDS011;5625;50.122;19.864;2023-08-06T00:38:24;21.73;;;16.97;;
11141;SDS011;5625;50.122;19.864;2023-08-06T00:40:52;19.00;;;15.63;;
11141;SDS011;5625;50.122;19.864;2023-08-06T00:43:20;19.17;;;15.47;;
11141;SDS011;5625;50.122;19.864;2023-08-06T00:45:50;19.90;;;15.13;;
11141;SDS011;5625;50.122;19.864;2023-08-06T00:48:18;15.77;;;14.07;;
11141;SDS011;5625;50.122;19.864;2023-08-06T00:50:47;17.47;;;13.93;;
11141;SDS011;5625;50.122;19.864;2023-08-06T00:53:15;16.57;;;14.20;;
11141;SDS011;5625;50.122;19.864;2023-08-06T00:55:43;15.37;;;13.77;;
11141;SDS011;5625;50.122;19.864;2023-08-06T00:58:12;17.13;;;14.47;;
11141;SDS011;5625;50.122;19.864;2023-08-06T01:00:41;16.03;;;12.90;;
11141;SDS011;5625;50.122;19.864;2023-08-06T01:03:11;15.77;;;13.67;;
11141;SDS011;5625;50.122;19.864;2023-08-06T01:05:39;17.90;;;14.60;;
11141;SDS011;5625;50.122;19.864;2023-08-06T01:08:12;17.13;;;14.37;;
11141;SDS011;5625;50.122;19.864;2023-08-06T01:10:55;18.90;;;14.93;;
11141;SDS011;5625;50.122;19.864;2023-08-06T01:13:37;19.43;;;14.33;;
11141;SDS011;5625;50.122;19.864;2023-08-06T01:16:10;19.23;;;14.50;;
11141;SDS011;5625;50.122;19.864;2023-08-06T01:18:41;17.57;;;13.83;;
11141;SDS011;5625;50.122;19.864;2023-08-06T01:21:13;19.17;;;14.27;;
11141;SDS011;5625;50.122;19.864;2023-08-06T01:23:42;17.23;;;14.30;;
11141;SDS011;5625;50.122;19.864;2023-08-06T01:26:12;19.03;;;14.87;;
11141;SDS011;5625;50.122;19.864;2023-08-06T01:28:47;15.57;;;13.13;;
11141;SDS011;5625;50.122;19.864;2023-08-06T01:31:22;17.80;;;13.90;;
11141;SDS011;5625;50.122;19.864;2023-08-06T01:33:54;17.53;;;14.10;;
11141;SDS011;5625;50.122;19.864;2023-08-06T01:36:26;18.07;;;13.80;;
11141;SDS011;5625;50.122;19.864;2023-08-06T01:38:57;14.97;;;13.37;;
11141;SDS011;5625;50.122;19.864;2023-08-06T01:41:25;14.67;;;13.13;;
11141;SDS011;5625;50.122;19.864;2023-08-06T01:43:53;18.90;;;14.40;;
11141;SDS011;5625;50.122;19.864;2023-08-06T01:46:21;15.80;;;14.13;;
11141;SDS011;5625;50.122;19.864;2023-08-06T01:48:49;15.70;;;13.83;;
11141;SDS011;5625;50.122;19.864;2023-08-06T01:51:17;17.80;;;14.20;;
11141;SDS011;5625;50.122;19.864;2023-08-06T01:53:48;16.87;;;13.97;;
11141;SDS011;5625;50.122;19.864;2023-08-06T01:56:16;18.43;;;14.33;;
11141;SDS011;5625;50.122;19.864;2023-08-06T01:58:45;15.70;;;14.07;;
11141;SDS011;5625;50.122;19.864;2023-08-06T02:01:13;16.30;;;14.17;;
11141;SDS011;5625;50.122;19.864;2023-08-06T02:03:41;17.03;;;13.97;;
11141;SDS011;5625;50.122;19.864;2023-08-06T02:06:09;17.07;;;13.63;;
11141;SDS011;5625;50.122;19.864;2023-08-06T02:08:37;18.20;;;14.67;;
11141;SDS011;5625;50.122;19.864;2023-08-06T02:11:07;16.90;;;15.10;;
11141;SDS011;5625;50.122;19.864;2023-08-06T02:13:35;17.17;;;14.90;;
11141;SDS011;5625;50.122;19.864;2023-08-06T02:16:03;19.30;;;16.17;;
11141;SDS011;5625;50.122;19.864;2023-08-06T02:18:33;17.47;;;15.10;;
11141;SDS011;5625;50.122;19.864;2023-08-06T02:21:02;17.53;;;15.13;;
11141;SDS011;5625;50.122;19.864;2023-08-06T02:23:30;16.70;;;15.10;;
11141;SDS011;5625;50.122;19.864;2023-08-06T02:25:58;16.13;;;14.50;;
11141;SDS011;5625;50.122;19.864;2023-08-06T02:28:29;16.00;;;14.30;;
11141;SDS011;5625;50.122;19.864;2023-08-06T02:30:57;18.47;;;15.80;;
11141;SDS011;5625;50.122;19.864;2023-08-06T02:33:26;16.63;;;13.80;;
11141;SDS011;5625;50.122;19.864;2023-08-06T02:35:58;15.60;;;13.80;;
11141;SDS011;5625;50.122;19.864;2023-08-06T02:38:27;15.80;;;13.97;;
11141;SDS011;5625;50.122;19.864;2023-08-06T02:40:55;14.60;;;13.00;;
11141;SDS011;5625;50.122;19.864;2023-08-06T02:43:23;15.30;;;12.87;;
11141;SDS011;5625;50.122;19.864;2023-08-06T02:45:56;13.67;;;12.27;;
11141;SDS011;5625;50.122;19.864;2023-08-06T02:48:25;15.13;;;13.53;;
11141;SDS011;5625;50.122;19.864;2023-08-06T02:50:56;13.80;;;12.40;;
11141;SDS011;5625;50.122;19.864;2023-08-06T02:53:25;14.03;;;12.63;;
11141;SDS011;5625;50.122;19.864;2023-08-06T02:55:54;14.60;;;12.33;;
11141;SDS011;5625;50.122;19.864;2023-08-06T02:58:22;14.53;;;13.10;;
11141;SDS011;5625;50.122;19.864;2023-08-06T03:01:01;14.27;;;12.70;;
11141;SDS011;5625;50.122;19.864;2023-08-06T03:03:31;14.90;;;13.30;;
11141;SDS011;5625;50.122;19.864;2023-08-06T03:05:59;15.07;;;12.67;;
11141;SDS011;5625;50.122;19.864;2023-08-06T03:08:28;15.37;;;12.77;;
11141;SDS011;5625;50.122;19.864;2023-08-06T03:10:56;14.23;;;12.73;;
11141;SDS011;5625;50.122;19.864;2023-08-06T03:13:24;13.67;;;12.23;;
11141;SDS011;5625;50.122;19.864;2023-08-06T03:15:52;14.27;;;12.77;;
11141;SDS011;5625;50.122;19.864;2023-08-06T03:18:22;15.50;;;12.50;;
11141;SDS011;5625;50.122;19.864;2023-08-06T03:20:52;16.07;;;13.07;;
11141;SDS011;5625;50.122;19.864;2023-08-06T03:23:20;14.63;;;12.50;;
11141;SDS011;5625;50.122;19.864;2023-08-06T03:25:48;16.03;;;13.67;;
11141;SDS011;5625;50.122;19.864;2023-08-06T03:28:16;15.77;;;13.53;;
11141;SDS011;5625;50.122;19.864;2023-08-06T03:30:45;15.40;;;13.77;;
11141;SDS011;5625;50.122;19.864;2023-08-06T03:33:16;14.27;;;12.77;;
11141;SDS011;5625;50.122;19.864;2023-08-06T03:35:45;15.97;;;14.17;;
11141;SDS011;5625;50.122;19.864;2023-08-06T03:38:13;14.77;;;12.73;;
11141;SDS011;5625;50.122;19.864;2023-08-06T03:40:41;13.37;;;12.10;;
11141;SDS011;5625;50.122;19.864;2023-08-06T03:43:12;16.87;;;14.33;;
11141;SDS011;5625;50.122;19.864;2023-08-06T03:45:42;14.60;;;13.03;;
11141;SDS011;5625;50.122;19.864;2023-08-06T03:48:11;21.57;;;16.13;;
11141;SDS011;5625;50.122;19.864;2023-08-06T03:50:39;20.03;;;15.90;;
11141;SDS011;5625;50.122;19.864;2023-08-06T03:53:08;20.30;;;16.50;;
11141;SDS011;5625;50.122;19.864;2023-08-06T03:55:37;19.63;;;16.40;;
11141;SDS011;5625;50.122;19.864;2023-08-06T03:58:05;20.90;;;16.47;;
11141;SDS011;5625;50.122;19.864;2023-08-06T04:00:35;17.07;;;15.07;;
11141;SDS011;5625;50.122;19.864;2023-08-06T04:03:03;16.70;;;13.87;;
11141;SDS011;5625;50.122;19.864;2023-08-06T04:05:32;16.40;;;14.53;;
11141;SDS011;5625;50.122;19.864;2023-08-06T04:08:00;21.67;;;16.30;;
11141;SDS011;5625;50.122;19.864;2023-08-06T04:10:29;18.33;;;15.80;;
11141;SDS011;5625;50.122;19.864;2023-08-06T04:12:57;16.70;;;14.93;;
11141;SDS011;5625;50.122;19.864;2023-08-06T04:15:25;19.70;;;15.43;;
11141;SDS011;5625;50.122;19.864;2023-08-06T04:17:53;15.37;;;13.73;;
11141;SDS011;5625;50.122;19.864;2023-08-06T04:20:23;17.50;;;14.50;;
11141;SDS011;5625;50.122;19.864;2023-08-06T04:22:51;17.53;;;13.83;;
11141;SDS011;5625;50.122;19.864;2023-08-06T04:25:21;17.43;;;15.23;;
11141;SDS011;5625;50.122;19.864;2023-08-06T04:27:51;15.40;;;13.80;;
11141;SDS011;5625;50.122;19.864;2023-08-06T04:30:19;17.30;;;14.70;;
11141;SDS011;5625;50.122;19.864;2023-08-06T04:32:49;15.30;;;13.70;;
11141;SDS011;5625;50.122;19.864;2023-08-06T04:35:17;16.40;;;14.57;;
11141;SDS011;5625;50.122;19.864;2023-08-06T04:37:46;16.70;;;13.80;;
11141;SDS011;5625;50.122;19.864;2023-08-06T04:40:14;18.23;;;13.80;;
11141;SDS011;5625;50.122;19.864;2023-08-06T04:42:42;18.40;;;14.50;;
11141;SDS011;5625;50.122;19.864;2023-08-06T04:45:12;15.00;;;13.17;;
11141;SDS011;5625;50.122;19.864;2023-08-06T04:47:40;17.07;;;13.80;;
11141;SDS011;5625;50.122;19.864;2023-08-06T04:50:09;15.57;;;13.47;;
11141;SDS011;5625;50.122;19.864;2023-08-06T04:52:37;16.63;;;12.70;;
11141;SDS011;5625;50.122;19.864;2023-08-06T04:55:05;14.33;;;12.73;;
11141;SDS011;5625;50.122;19.864;2023-08-06T04:57:33;13.80;;;12.47;;
11141;SDS011;5625;50.122;19.864;2023-08-06T05:00:02;14.23;;;12.00;;
11141;SDS011;5625;50.122;19.864;2023-08-06T05:02:32;13.57;;;12.33;;
11141;SDS011;5625;50.122;19.864;2023-08-06T05:05:01;12.87;;;11.53;;
11141;SDS011;5625;50.122;19.864;2023-08-06T05:07:29;13.73;;;12.43;;
11141;SDS011;5625;50.122;19.864;2023-08-06T05:09:57;13.63;;;12.33;;
11141;SDS011;5625;50.122;19.864;2023-08-06T05:12:25;14.30;;;12.00;;
11141;SDS011;5625;50.122;19.864;2023-08-06T05:14:56;13.53;;;12.30;;
11141;SDS011;5625;50.122;19.864;2023-08-06T05:17:27;15.20;;;13.57;;
11141;SDS011;5625;50.122;19.864;2023-08-06T05:19:56;14.57;;;13.07;;
11141;SDS011;5625;50.122;19.864;2023-08-06T05:22:24;14.20;;;12.40;;
11141;SDS011;5625;50.122;19.864;2023-08-06T05:24:55;14.53;;;13.03;;
11141;SDS011;5625;50.122;19.864;2023-08-06T05:27:23;13.57;;;12.13;;
11141;SDS011;5625;50.122;19.864;2023-08-06T05:29:54;14.40;;;13.00;;
11141;SDS011;5625;50.122;19.864;2023-08-06T05:32:23;13.73;;;12.50;;
11141;SDS011;5625;50.122;19.864;2023-08-06T05:34:51;13.73;;;12.53;;
11141;SDS011;5625;50.122;19.864;2023-08-06T05:37:21;14.63;;;13.20;;
11141;SDS011;5625;50.122;19.864;2023-08-06T05:39:49;14.70;;;13.10;;
11141;SDS011;5625;50.122;19.864;2023-08-06T05:42:17;15.27;;;12.47;;
11141;SDS011;5625;50.122;19.864;2023-08-06T05:44:45;14.17;;;12.20;;
11141;SDS011;5625;50.122;19.864;2023-08-06T05:47:13;13.00;;;11.70;;
11141;SDS011;5625;50.122;19.864;2023-08-06T05:49:42;14.00;;;12.03;;
11141;SDS011;5625;50.122;19.864;2023-08-06T05:52:10;14.30;;;11.47;;
11141;SDS011;5625;50.122;19.864;2023-08-06T05:54:39;13.20;;;11.73;;
11141;SDS011;5625;50.122;19.864;2023-08-06T05:57:07;12.30;;;11.10;;
11141;SDS011;5625;50.122;19.864;2023-08-06T05:59:35;13.03;;;11.73;;
11141;SDS011;5625;50.122;19.864;2023-08-06T06:02:04;13.00;;;11.23;;
11141;SDS011;5625;50.122;19.864;2023-08-06T06:04:33;11.63;;;10.50;;
11141;SDS011;5625;50.122;19.864;2023-08-06T06:07:01;11.83;;;10.73;;
11141;SDS011;5625;50.122;19.864;2023-08-06T06:09:30;12.70;;;11.50;;
11141;SDS011;5625;50.122;19.864;2023-08-06T06:11:59;12.73;;;11.40;;
11141;SDS011;5625;50.122;19.864;2023-08-06T06:14:27;12.60;;;11.13;;
11141;SDS011;5625;50.122;19.864;2023-08-06T06:16:55;12.03;;;10.80;;
11141;SDS011;5625;50.122;19.864;2023-08-06T06:19:23;12.67;;;10.57;;
11141;SDS011;5625;50.122;19.864;2023-08-06T06:22:02;11.83;;;10.73;;
11141;SDS011;5625;50.122;19.864;2023-08-06T06:24:30;10.70;;;9.40;;
11141;SDS011;5625;50.122;19.864;2023-08-06T06:27:04;10.07;;;9.17;;
11141;SDS011;5625;50.122;19.864;2023-08-06T06:29:35;10.27;;;8.17;;
11141;SDS011;5625;50.122;19.864;2023-08-06T06:32:04;9.27;;;8.47;;
11141;SDS011;5625;50.122;19.864;2023-08-06T06:34:32;10.70;;;8.57;;
11141;SDS011;5625;50.122;19.864;2023-08-06T06:37:03;8.10;;;7.30;;
11141;SDS011;5625;50.122;19.864;2023-08-06T06:39:32;8.20;;;7.50;;
11141;SDS011;5625;50.122;19.864;2023-08-06T06:42:00;8.33;;;7.57;;
11141;SDS011;5625;50.122;19.864;2023-08-06T06:44:37;8.13;;;7.33;;
11141;SDS011;5625;50.122;19.864;2023-08-06T06:47:05;8.90;;;8.13;;
11141;SDS011;5625;50.122;19.864;2023-08-06T06:49:36;8.50;;;7.57;;
11141;SDS011;5625;50.122;19.864;2023-08-06T06:52:05;9.03;;;8.13;;
11141;SDS011;5625;50.122;19.864;2023-08-06T06:54:33;8.67;;;7.57;;
11141;SDS011;5625;50.122;19.864;2023-08-06T06:57:02;9.30;;;8.40;;
11141;SDS011;5625;50.122;19.864;2023-08-06T06:59:32;8.93;;;8.13;;
11141;SDS011;5625;50.122;19.864;2023-08-06T07:02:02;8.67;;;7.87;;
11141;SDS011;5625;50.122;19.864;2023-08-06T07:04:30;7.87;;;7.23;;
11141;SDS011;5625;50.122;19.864;2023-08-06T07:06:58;8.97;;;7.93;;
11141;SDS011;5625;50.122;19.864;2023-08-06T07:09:26;9.33;;;8.43;;
11141;SDS011;5625;50.122;19.864;2023-08-06T07:11:54;8.87;;;7.90;;
11141;SDS011;5625;50.122;19.864;2023-08-06T07:14:24;9.73;;;8.67;;
11141;SDS011;5625;50.122;19.864;2023-08-06T07:16:54;9.07;;;8.30;;
11141;SDS011;5625;50.122;19.864;2023-08-06T07:19:23;8.83;;;8.00;;
11141;SDS011;5625;50.122;19.864;2023-08-06T07:21:51;8.90;;;8.10;;
11141;SDS011;5625;50.122;19.864;2023-08-06T07:24:19;9.70;;;8.70;;
11141;SDS011;5625;50.122;19.864;2023-08-06T07:26:47;10.47;;;8.50;;
11141;SDS011;5625;50.122;19.864;2023-08-06T07:29:15;9.10;;;8.20;;
11141;SDS011;5625;50.122;19.864;2023-08-06T07:31:47;9.20;;;8.30;;
11141;SDS011;5625;50.122;19.864;2023-08-06T07:34:18;9.27;;;8.37;;
11141;SDS011;5625;50.122;19.864;2023-08-06T07:36:46;9.90;;;8.87;;
11141;SDS011;5625;50.122;19.864;2023-08-06T07:39:14;10.67;;;9.57;;
11141;SDS011;5625;50.122;19.864;2023-08-06T07:41:43;13.30;;;11.90;;
11141;SDS011;5625;50.122;19.864;2023-08-06T07:44:12;14.70;;;13.00;;
11141;SDS011;5625;50.122;19.864;2023-08-06T07:46:41;17.03;;;15.23;;
11141;SDS011;5625;50.122;19.864;2023-08-06T07:49:09;7.10;;;5.57;;
11141;SDS011;5625;50.122;19.864;2023-08-06T07:51:39;3.57;;;3.00;;
11141;SDS011;5625;50.122;19.864;2023-08-06T07:54:08;3.90;;;2.10;;
11141;SDS011;5625;50.122;19.864;2023-08-06T07:56:39;1.60;;;1.30;;
11141;SDS011;5625;50.122;19.864;2023-08-06T07:59:13;0.60;;;0.60;;
11141;SDS011;5625;50.122;19.864;2023-08-06T08:01:47;1.60;;;0.50;;
11141;SDS011;5625;50.122;19.864;2023-08-06T08:04:15;1.03;;;0.33;;
11141;SDS011;5625;50.122;19.864;2023-08-06T08:06:44;0.40;;;0.40;;
11141;SDS011;5625;50.122;19.864;2023-08-06T08:09:15;0.63;;;0.50;;
11141;SDS011;5625;50.122;19.864;2023-08-06T08:11:50;1.80;;;0.40;;
11141;SDS011;5625;50.122;19.864;2023-08-06T08:14:22;0.40;;;0.40;;
11141;SDS011;5625;50.122;19.864;2023-08-06T08:19:52;0.20;;;0.20;;
11141;SDS011;5625;50.122;19.864;2023-08-06T08:22:22;0.63;;;0.50;;
11141;SDS011;5625;50.122;19.864;2023-08-06T08:24:51;0.57;;;0.40;;
11141;SDS011;5625;50.122;19.864;2023-08-06T08:27:22;0.63;;;0.30;;
11141;SDS011;5625;50.122;19.864;2023-08-06T08:29:57;1.17;;;0.33;;
11141;SDS011;5625;50.122;19.864;2023-08-06T08:32:28;0.50;;;0.30;;
11141;SDS011;5625;50.122;19.864;2023-08-06T08:34:58;0.53;;;0.20;;
11141;SDS011;5625;50.122;19.864;2023-08-06T08:37:27;1.03;;;0.20;;
11141;SDS011;5625;50.122;19.864;2023-08-06T08:39:59;0.50;;;0.40;;
11141;SDS011;5625;50.122;19.864;2023-08-06T08:42:30;0.63;;;0.60;;
11141;SDS011;5625;50.122;19.864;2023-08-06T08:44:59;0.40;;;0.40;;
11141;SDS011;5625;50.122;19.864;2023-08-06T08:47:30;0.43;;;0.30;;
11141;SDS011;5625;50.122;19.864;2023-08-06T08:49:59;0.20;;;0.20;;
11141;SDS011;5625;50.122;19.864;2023-08-06T08:52:39;0.60;;;0.40;;
11141;SDS011;5625;50.122;19.864;2023-08-06T08:55:07;0.40;;;0.40;;
11141;SDS011;5625;50.122;19.864;2023-08-06T08:57:45;1.10;;;0.40;;
11141;SDS011;5625;50.122;19.864;2023-08-06T09:00:16;2.97;;;0.60;;
11141;SDS011;5625;50.122;19.864;2023-08-06T09:02:45;0.30;;;0.23;;
11141;SDS011;5625;50.122;19.864;2023-08-06T09:05:16;0.93;;;0.30;;
11141;SDS011;5625;50.122;19.864;2023-08-06T09:07:49;0.70;;;0.27;;
11141;SDS011;5625;50.122;19.864;2023-08-06T09:10:51;1.03;;;0.23;;
11141;SDS011;5625;50.122;19.864;2023-08-06T09:13:19;0.60;;;0.20;;
11141;SDS011;5625;50.122;19.864;2023-08-06T09:15:49;0.33;;;0.20;;
11141;SDS011;5625;50.122;19.864;2023-08-06T09:18:24;0.50;;;0.30;;
11141;SDS011;5625;50.122;19.864;2023-08-06T09:20:54;0.73;;;0.20;;
11141;SDS011;5625;50.122;19.864;2023-08-06T09:23:28;0.47;;;0.20;;
11141;SDS011;5625;50.122;19.864;2023-08-06T09:25:57;0.37;;;0.20;;
11141;SDS011;5625;50.122;19.864;2023-08-06T09:28:30;0.23;;;0.17;;
11141;SDS011;5625;50.122;19.864;2023-08-06T09:31:05;0.27;;;0.10;;
11141;SDS011;5625;50.122;19.864;2023-08-06T09:33:35;0.73;;;0.30;;
11141;SDS011;5625;50.122;19.864;2023-08-06T09:36:08;0.10;;;0.10;;
11141;SDS011;5625;50.122;19.864;2023-08-06T09:38:39;0.43;;;0.27;;
11141;SDS011;5625;50.122;19.864;2023-08-06T09:41:08;1.07;;;0.20;;
11141;SDS011;5625;50.122;19.864;2023-08-06T09:43:56;0.20;;;0.20;;
11141;SDS011;5625;50.122;19.864;2023-08-06T09:46:24;0.30;;;0.30;;
11141;SDS011;5625;50.122;19.864;2023-08-06T09:48:52;0.37;;;0.37;;
11141;SDS011;5625;50.122;19.864;2023-08-06T09:51:20;0.53;;;0.30;;
11141;SDS011;5625;50.122;19.864;2023-08-06T09:53:49;0.90;;;0.13;;
11141;SDS011;5625;50.122;19.864;2023-08-06T09:56:18;1.27;;;0.30;;
11141;SDS011;5625;50.122;19.864;2023-08-06T09:58:47;0.37;;;0.30;;
11141;SDS011;5625;50.122;19.864;2023-08-06T10:01:17;0.10;;;0.10;;
11141;SDS011;5625;50.122;19.864;2023-08-06T10:03:46;1.13;;;0.30;;
11141;SDS011;5625;50.122;19.864;2023-08-06T10:06:17;0.20;;;0.20;;
11141;SDS011;5625;50.122;19.864;2023-08-06T10:08:47;0.73;;;0.30;;
11141;SDS011;5625;50.122;19.864;2023-08-06T10:11:17;0.20;;;0.20;;
11141;SDS011;5625;50.122;19.864;2023-08-06T10:13:47;0.50;;;0.40;;
11141;SDS011;5625;50.122;19.864;2023-08-06T10:16:16;0.70;;;0.30;;
11141;SDS011;5625;50.122;19.864;2023-08-06T10:18:45;0.30;;;0.30;;
11141;SDS011;5625;50.122;19.864;2023-08-06T10:21:14;0.63;;;0.20;;
11141;SDS011;5625;50.122;19.864;2023-08-06T10:23:43;1.00;;;0.30;;
11141;SDS011;5625;50.122;19.864;2023-08-06T10:26:22;0.60;;;0.60;;
11141;SDS011;5625;50.122;19.864;2023-08-06T10:28:53;0.40;;;0.40;;
11141;SDS011;5625;50.122;19.864;2023-08-06T10:31:31;1.03;;;0.37;;
11141;SDS011;5625;50.122;19.864;2023-08-06T10:34:22;0.70;;;0.40;;
11141;SDS011;5625;50.122;19.864;2023-08-06T10:36:50;0.83;;;0.30;;
11141;SDS011;5625;50.122;19.864;2023-08-06T10:39:22;0.70;;;0.40;;
11141;SDS011;5625;50.122;19.864;2023-08-06T10:41:58;0.40;;;0.40;;
11141;SDS011;5625;50.122;19.864;2023-08-06T10:44:28;0.53;;;0.40;;
11141;SDS011;5625;50.122;19.864;2023-08-06T10:46:59;0.30;;;0.30;;
11141;SDS011;5625;50.122;19.864;2023-08-06T10:50:10;1.70;;;0.60;;
11141;SDS011;5625;50.122;19.864;2023-08-06T10:52:39;0.60;;;0.60;;
11141;SDS011;5625;50.122;19.864;2023-08-06T10:55:08;0.30;;;0.30;;
11141;SDS011;5625;50.122;19.864;2023-08-06T10:57:40;0.50;;;0.43;;
11141;SDS011;5625;50.122;19.864;2023-08-06T11:00:08;0.30;;;0.30;;
11141;SDS011;5625;50.122;19.864;2023-08-06T11:02:42;0.40;;;0.40;;
11141;SDS011;5625;50.122;19.864;2023-08-06T11:05:11;0.43;;;0.30;;
11141;SDS011;5625;50.122;19.864;2023-08-06T11:07:40;0.30;;;0.30;;
11141;SDS011;5625;50.122;19.864;2023-08-06T11:10:09;0.20;;;0.20;;
11141;SDS011;5625;50.122;19.864;2023-08-06T11:12:40;0.83;;;0.30;;
11141;SDS011;5625;50.122;19.864;2023-08-06T11:15:08;1.40;;;0.30;;
11141;SDS011;5625;50.122;19.864;2023-08-06T11:17:39;0.30;;;0.30;;
11141;SDS011;5625;50.122;19.864;2023-08-06T11:20:08;0.30;;;0.30;;
11141;SDS011;5625;50.122;19.864;2023-08-06T11:22:43;0.30;;;0.30;;
11141;SDS011;5625;50.122;19.864;2023-08-06T11:25:13;0.30;;;0.30;;
11141;SDS011;5625;50.122;19.864;2023-08-06T11:27:43;0.30;;;0.30;;
11141;SDS011;5625;50.122;19.864;2023-08-06T11:30:11;0.37;;;0.30;;
11141;SDS011;5625;50.122;19.864;2023-08-06T11:32:46;1.40;;;0.30;;
11141;SDS011;5625;50.122;19.864;2023-08-06T11:35:15;0.80;;;0.20;;
11141;SDS011;5625;50.122;19.864;2023-08-06T11:37:43;0.73;;;0.30;;
11141;SDS011;5625;50.122;19.864;2023-08-06T11:40:14;1.30;;;0.50;;
11141;SDS011;5625;50.122;19.864;2023-08-06T11:42:44;0.43;;;0.43;;
11141;SDS011;5625;50.122;19.864;2023-08-06T11:45:14;0.60;;;0.60;;
11141;SDS011;5625;50.122;19.864;2023-08-06T11:47:42;0.30;;;0.30;;
11141;SDS011;5625;50.122;19.864;2023-08-06T11:50:21;0.40;;;0.40;;
11141;SDS011;5625;50.122;19.864;2023-08-06T11:52:54;0.57;;;0.40;;
11141;SDS011;5625;50.122;19.864;2023-08-06T11:55:24;0.43;;;0.43;;
11141;SDS011;5625;50.122;19.864;2023-08-06T11:57:55;0.50;;;0.30;;
11141;SDS011;5625;50.122;19.864;2023-08-06T12:00:24;0.40;;;0.40;;
11141;SDS011;5625;50.122;19.864;2023-08-06T12:02:53;0.93;;;0.50;;
11141;SDS011;5625;50.122;19.864;2023-08-06T12:05:22;0.40;;;0.40;;
11141;SDS011;5625;50.122;19.864;2023-08-06T12:07:51;0.83;;;0.47;;
11141;SDS011;5625;50.122;19.864;2023-08-06T12:10:21;0.60;;;0.40;;
11141;SDS011;5625;50.122;19.864;2023-08-06T12:12:50;0.67;;;0.60;;
11141;SDS011;5625;50.122;19.864;2023-08-06T12:15:22;0.67;;;0.40;;
11141;SDS011;5625;50.122;19.864;2023-08-06T12:17:50;0.60;;;0.30;;
11141;SDS011;5625;50.122;19.864;2023-08-06T12:20:19;0.30;;;0.30;;
11141;SDS011;5625;50.122;19.864;2023-08-06T12:22:47;0.80;;;0.67;;
11141;SDS011;5625;50.122;19.864;2023-08-06T12:25:15;1.00;;;0.30;;
11141;SDS011;5625;50.122;19.864;2023-08-06T12:27:44;0.63;;;0.63;;
11141;SDS011;5625;50.122;19.864;2023-08-06T12:30:12;0.60;;;0.60;;
11141;SDS011;5625;50.122;19.864;2023-08-06T12:32:42;0.87;;;0.40;;
11141;SDS011;5625;50.122;19.864;2023-08-06T12:35:10;0.67;;;0.57;;
11141;SDS011;5625;50.122;19.864;2023-08-06T12:37:40;0.30;;;0.30;;
11141;SDS011;5625;50.122;19.864;2023-08-06T12:40:10;0.77;;;0.30;;
11141;SDS011;5625;50.122;19.864;2023-08-06T12:42:58;0.30;;;0.30;;
11141;SDS011;5625;50.122;19.864;2023-08-06T12:45:26;1.03;;;0.40;;
11141;SDS011;5625;50.122;19.864;2023-08-06T12:47:56;0.50;;;0.50;;
11141;SDS011;5625;50.122;19.864;2023-08-06T12:50:24;0.40;;;0.40;;
11141;SDS011;5625;50.122;19.864;2023-08-06T12:52:52;0.30;;;0.23;;
11141;SDS011;5625;50.122;19.864;2023-08-06T12:55:20;0.20;;;0.20;;
11141;SDS011;5625;50.122;19.864;2023-08-06T12:57:49;3.00;;;0.30;;
11141;SDS011;5625;50.122;19.864;2023-08-06T13:00:24;0.97;;;0.60;;
11141;SDS011;5625;50.122;19.864;2023-08-06T13:02:53;1.00;;;0.40;;
11141;SDS011;5625;50.122;19.864;2023-08-06T13:05:22;0.63;;;0.40;;
11141;SDS011;5625;50.122;19.864;2023-08-06T13:07:51;1.33;;;0.40;;
11141;SDS011;5625;50.122;19.864;2023-08-06T13:10:19;1.47;;;0.53;;
11141;SDS011;5625;50.122;19.864;2023-08-06T13:12:47;0.60;;;0.60;;
11141;SDS011;5625;50.122;19.864;2023-08-06T13:15:16;1.30;;;0.50;;
11141;SDS011;5625;50.122;19.864;2023-08-06T13:17:46;1.27;;;0.53;;
11141;SDS011;5625;50.122;19.864;2023-08-06T13:20:14;0.40;;;0.40;;
11141;SDS011;5625;50.122;19.864;2023-08-06T13:22:47;0.50;;;0.50;;
11141;SDS011;5625;50.122;19.864;2023-08-06T13:25:17;1.40;;;0.60;;
11141;SDS011;5625;50.122;19.864;2023-08-06T13:27:48;0.53;;;0.40;;
11141;SDS011;5625;50.122;19.864;2023-08-06T13:30:16;0.40;;;0.40;;
11141;SDS011;5625;50.122;19.864;2023-08-06T13:32:45;0.40;;;0.40;;
11141;SDS011;5625;50.122;19.864;2023-08-06T13:35:14;0.47;;;0.40;;
11141;SDS011;5625;50.122;19.864;2023-08-06T13:37:42;0.67;;;0.30;;
11141;SDS011;5625;50.122;19.864;2023-08-06T13:40:12;1.03;;;0.80;;
11141;SDS011;5625;50.122;19.864;2023-08-06T13:42:40;0.43;;;0.43;;
11141;SDS011;5625;50.122;19.864;2023-08-06T13:45:08;0.77;;;0.50;;
11141;SDS011;5625;50.122;19.864;2023-08-06T13:47:37;0.60;;;0.40;;
11141;SDS011;5625;50.122;19.864;2023-08-06T13:50:07;0.77;;;0.30;;
11141;SDS011;5625;50.122;19.864;2023-08-06T13:52:36;0.30;;;0.30;;
11141;SDS011;5625;50.122;19.864;2023-08-06T13:55:04;2.67;;;0.50;;
11141;SDS011;5625;50.122;19.864;2023-08-06T13:57:35;0.40;;;0.40;;
11141;SDS011;5625;50.122;19.864;2023-08-06T14:00:04;0.50;;;0.43;;
11141;SDS011;5625;50.122;19.864;2023-08-06T14:02:33;0.40;;;0.40;;
11141;SDS011;5625;50.122;19.864;2023-08-06T14:05:01;1.77;;;0.60;;
11141;SDS011;5625;50.122;19.864;2023-08-06T14:07:29;0.43;;;0.43;;
11141;SDS011;5625;50.122;19.864;2023-08-06T14:09:57;0.40;;;0.40;;
11141;SDS011;5625;50.122;19.864;2023-08-06T14:12:25;0.43;;;0.43;;
11141;SDS011;5625;50.122;19.864;2023-08-06T14:14:55;0.30;;;0.30;;
11141;SDS011;5625;50.122;19.864;2023-08-06T14:17:23;0.77;;;0.60;;
11141;SDS011;5625;50.122;19.864;2023-08-06T14:19:51;1.67;;;0.70;;
11141;SDS011;5625;50.122;19.864;2023-08-06T14:22:19;1.90;;;0.57;;
11141;SDS011;5625;50.122;19.864;2023-08-06T14:24:47;0.50;;;0.50;;
11141;SDS011;5625;50.122;19.864;2023-08-06T14:27:15;0.60;;;0.60;;
11141;SDS011;5625;50.122;19.864;2023-08-06T14:29:43;0.70;;;0.70;;
11141;SDS011;5625;50.122;19.864;2023-08-06T14:32:16;1.43;;;0.60;;
11141;SDS011;5625;50.122;19.864;2023-08-06T14:34:48;0.63;;;0.63;;
11141;SDS011;5625;50.122;19.864;2023-08-06T14:37:16;1.13;;;0.67;;
11141;SDS011;5625;50.122;19.864;2023-08-06T14:39:45;0.60;;;0.60;;
11141;SDS011;5625;50.122;19.864;2023-08-06T14:42:13;0.77;;;0.63;;
11141;SDS011;5625;50.122;19.864;2023-08-06T14:44:41;0.50;;;0.50;;
11141;SDS011;5625;50.122;19.864;2023-08-06T14:47:09;1.67;;;0.60;;
11141;SDS011;5625;50.122;19.864;2023-08-06T14:49:41;0.60;;;0.60;;
11141;SDS011;5625;50.122;19.864;2023-08-06T14:52:10;0.87;;;0.60;;
11141;SDS011;5625;50.122;19.864;2023-08-06T14:54:39;0.60;;;0.60;;